createdAt,value
2024-02-26T00:01:00.223Z,95.06
2024-02-26T00:06:33.690Z,95.16
2024-02-26T00:11:40.085Z,95.28
2024-02-26T00:16:43.692Z,95.71
2024-02-26T00:21:47.231Z,95.73
2024-02-26T00:26:54.550Z,96.58
2024-02-26T00:31:58.178Z,97.78
2024-02-26T00:37:01.552Z,98.77
2024-02-26T00:42:27.833Z,99.90
2024-02-26T00:47:31.615Z,100.00
2024-02-26T00:52:41.391Z,100.00
2024-02-26T00:57:47.480Z,100.00
2024-02-26T01:03:00.808Z,99.94
2024-02-26T01:08:10.338Z,99.66
2024-02-26T01:13:26.997Z,98.40
2024-02-26T01:18:33.547Z,99.07
2024-02-26T01:23:41.843Z,99.68
2024-02-26T01:28:45.335Z,99.90
2024-02-26T01:33:49.025Z,99.29
2024-02-26T01:38:57.287Z,99.94
2024-02-26T01:44:06.354Z,100.00
2024-02-26T01:49:17.489Z,99.91
2024-02-26T01:55:11.637Z,98.67
2024-02-26T02:00:33.637Z,99.87
2024-02-26T02:06:26.034Z,100.00
2024-02-26T02:11:32.006Z,99.38
2024-02-26T02:16:56.443Z,99.47
2024-02-26T02:22:02.589Z,99.50
2024-02-26T02:27:30.299Z,99.91
2024-02-26T02:32:41.081Z,100.00
2024-02-26T02:37:44.590Z,100.00
2024-02-26T02:42:50.752Z,99.91
2024-02-26T02:47:54.808Z,99.97
2024-02-26T02:53:03.230Z,100.00
2024-02-26T02:58:09.778Z,100.00
2024-02-26T03:03:47.084Z,100.00
2024-02-26T03:08:55.646Z,100.00
2024-02-26T03:14:10.040Z,100.00
2024-02-26T03:19:24.797Z,100.00
2024-02-26T03:24:29.338Z,100.00
2024-02-26T03:29:39.839Z,100.00
2024-02-26T03:34:45.750Z,100.00
2024-02-26T03:39:49.253Z,100.00
2024-02-26T03:44:52.768Z,100.00
2024-02-26T03:50:02.005Z,100.00
2024-02-26T03:55:09.118Z,100.00
2024-02-26T04:00:13.518Z,100.00
2024-02-26T04:05:17.289Z,100.00
2024-02-26T04:10:23.192Z,100.00
2024-02-26T04:15:37.775Z,100.00
2024-02-26T04:20:44.036Z,100.00
2024-02-26T04:26:05.198Z,100.00
2024-02-26T04:31:11.151Z,100.00
2024-02-26T04:36:19.056Z,100.00
2024-02-26T04:41:22.884Z,100.00
2024-02-26T04:46:29.623Z,100.00
2024-02-26T04:51:33.351Z,100.00
2024-02-26T04:56:37.224Z,100.00
2024-02-26T05:01:56.620Z,100.00
2024-02-26T05:07:03.342Z,100.00
2024-02-26T05:12:50.284Z,100.00
2024-02-26T05:17:58.691Z,100.00
2024-02-26T05:23:06.982Z,100.00
2024-02-26T05:28:24.168Z,100.00
2024-02-26T05:33:37.830Z,100.00
2024-02-26T05:38:47.808Z,100.00
2024-02-26T05:43:51.941Z,100.00
2024-02-26T05:48:55.600Z,100.00
2024-02-26T05:54:18.665Z,100.00
2024-02-26T05:59:25.260Z,100.00
2024-02-26T06:04:31.153Z,100.00
2024-02-26T06:09:54.423Z,100.00
2024-02-26T06:15:11.336Z,100.00
2024-02-26T06:20:18.197Z,100.00
2024-02-26T06:25:25.174Z,100.00
2024-02-26T06:30:39.135Z,100.00
2024-02-26T06:36:34.454Z,100.00
2024-02-26T06:41:42.777Z,100.00
2024-02-26T06:47:05.058Z,100.00
2024-02-26T06:52:11.065Z,100.00
2024-02-26T06:57:15.303Z,100.00
2024-02-26T07:02:19.426Z,100.00
2024-02-26T07:07:27.164Z,100.00
2024-02-26T07:12:31.733Z,100.00
2024-02-26T07:17:35.459Z,100.00
2024-02-26T07:22:41.452Z,100.00
2024-02-26T07:27:44.880Z,99.95
2024-02-26T07:32:51.358Z,99.99
2024-02-26T07:37:55.150Z,100.00
2024-02-26T07:42:58.602Z,100.00
2024-02-26T07:48:02.077Z,100.00
2024-02-26T07:53:05.822Z,100.00
2024-02-26T07:58:09.959Z,100.00
2024-02-26T08:03:14.785Z,100.00
2024-02-26T08:08:18.797Z,100.00
2024-02-26T08:13:22.448Z,100.00
2024-02-26T08:18:25.965Z,100.00
2024-02-26T08:23:30.261Z,100.00
2024-02-26T08:28:33.765Z,100.00
2024-02-26T08:33:39.782Z,100.00
2024-02-26T08:38:43.360Z,100.00
2024-02-26T08:43:47.052Z,100.00
2024-02-26T08:48:50.807Z,100.00
2024-02-26T08:53:55.315Z,100.00
2024-02-26T08:59:05.261Z,100.00
2024-02-26T09:04:09.238Z,100.00
2024-02-26T09:09:13.034Z,100.00
2024-02-26T09:14:16.552Z,100.00
2024-02-26T09:19:19.997Z,100.00
2024-02-26T09:24:23.688Z,100.00
2024-02-26T09:29:30.366Z,100.00
2024-02-26T09:34:35.127Z,100.00
2024-02-26T09:39:38.909Z,100.00
2024-02-26T09:44:45.127Z,100.00
2024-02-26T09:49:53.500Z,100.00
2024-02-26T09:54:56.932Z,100.00
2024-02-26T10:00:06.794Z,100.00
2024-02-26T10:05:15.662Z,99.99
2024-02-26T10:10:19.549Z,99.65
2024-02-26T10:15:23.026Z,99.42
2024-02-26T10:20:27.680Z,98.93
2024-02-26T10:25:55.578Z,98.72
2024-02-26T10:31:01.841Z,97.65
2024-02-26T10:36:09.649Z,97.25
2024-02-26T10:41:16.803Z,96.51
2024-02-26T10:46:20.890Z,96.47
2024-02-26T10:51:29.561Z,97.03
2024-02-26T10:56:41.244Z,97.09
2024-02-26T11:01:48.080Z,97.12
2024-02-26T11:06:52.352Z,97.45
2024-02-26T11:11:56.632Z,97.64
2024-02-26T11:17:01.508Z,97.22
2024-02-26T11:22:15.812Z,97.65
2024-02-26T11:27:46.415Z,96.95
2024-02-26T11:32:50.376Z,97.11
2024-02-26T11:37:58.028Z,96.79
2024-02-26T11:43:01.423Z,96.62
2024-02-26T11:48:12.956Z,95.87
2024-02-26T11:53:32.212Z,95.60
2024-02-26T11:58:36.024Z,94.57
2024-02-26T12:03:40.423Z,94.43
2024-02-26T12:08:45.642Z,93.97
2024-02-26T12:13:52.100Z,94.29
2024-02-26T12:18:56.245Z,93.80
2024-02-26T12:24:12.685Z,93.47
2024-02-26T12:29:16.164Z,92.38
2024-02-26T12:34:20.983Z,91.61
2024-02-26T12:39:25.060Z,90.51
2024-02-26T12:44:28.482Z,90.66
2024-02-26T12:49:32.733Z,90.09
2024-02-26T12:54:40.220Z,89.57
2024-02-26T12:59:43.720Z,88.76
2024-02-26T13:04:47.428Z,88.22
2024-02-26T13:09:51.501Z,87.51
2024-02-26T13:15:03.066Z,87.17
2024-02-26T13:20:07.928Z,86.29
2024-02-26T13:25:11.711Z,85.53
2024-02-26T13:30:15.370Z,85.31
2024-02-26T13:35:19.731Z,84.73
2024-02-26T13:40:23.658Z,84.43
2024-02-26T13:45:30.008Z,84.31
2024-02-26T13:50:44.898Z,83.05
2024-02-26T13:55:48.575Z,82.52
2024-02-26T14:00:52.021Z,81.88
2024-02-26T14:05:55.988Z,81.58
2024-02-26T14:11:01.311Z,80.71
2024-02-26T14:16:04.932Z,80.23
2024-02-26T14:21:08.454Z,79.81
2024-02-26T14:26:12.701Z,80.00
2024-02-26T14:31:19.116Z,80.15
2024-02-26T14:36:23.084Z,80.20
2024-02-26T14:41:26.531Z,80.42
2024-02-26T14:46:30.237Z,80.73
2024-02-26T14:51:33.882Z,80.94
2024-02-26T14:56:38.464Z,81.17
2024-02-26T15:01:43.719Z,81.29
2024-02-26T15:06:48.415Z,81.48
2024-02-26T15:11:52.215Z,81.73
2024-02-26T15:16:55.846Z,82.06
2024-02-26T15:21:59.243Z,82.33
2024-02-26T15:27:02.588Z,82.47
2024-02-26T15:32:08.443Z,82.82
2024-02-26T15:37:14.737Z,83.30
2024-02-26T15:42:18.797Z,83.45
2024-02-26T15:47:22.148Z,83.95
2024-02-26T15:52:25.877Z,84.19
2024-02-26T15:57:29.490Z,84.38
2024-02-26T16:02:33.276Z,84.77
2024-02-26T16:08:00.477Z,85.17
2024-02-26T16:13:05.757Z,85.82
2024-02-26T16:18:09.434Z,86.26
2024-02-26T16:23:13.030Z,86.80
2024-02-26T16:28:16.578Z,87.27
2024-02-26T16:33:20.380Z,87.67
2024-02-26T16:38:24.587Z,88.17
2024-02-26T16:43:28.313Z,88.64
2024-02-26T16:48:38.120Z,89.14
2024-02-26T16:53:42.474Z,89.58
2024-02-26T16:58:45.992Z,90.30
2024-02-26T17:03:49.469Z,90.95
2024-02-26T17:08:55.808Z,91.35
2024-02-26T17:13:59.424Z,92.07
2024-02-26T17:19:03.663Z,92.49
2024-02-26T17:24:07.680Z,93.08
2024-02-26T17:29:11.615Z,93.46
2024-02-26T17:34:15.299Z,93.91
2024-02-26T17:39:18.991Z,94.47
2024-02-26T17:44:25.965Z,94.63
2024-02-26T17:49:29.606Z,95.08
2024-02-26T17:54:33.785Z,95.55
2024-02-26T17:59:37.419Z,96.01
2024-02-26T18:04:41.331Z,96.28
2024-02-26T18:09:46.077Z,96.89
2024-02-26T18:14:50.656Z,97.44
2024-02-26T18:19:54.849Z,97.83
2024-02-26T18:24:58.702Z,98.25
2024-02-26T18:30:02.765Z,98.78
2024-02-26T18:36:03.171Z,99.32
2024-02-26T18:41:12.344Z,99.91
2024-02-26T18:46:18.827Z,100.00
2024-02-26T18:51:22.652Z,100.00
2024-02-26T18:56:36.326Z,100.00
2024-02-26T19:01:49.036Z,100.00
2024-02-26T19:06:52.876Z,100.00
2024-02-26T19:11:58.101Z,100.00
2024-02-26T19:17:08.873Z,100.00
2024-02-26T19:22:17.917Z,100.00
2024-02-26T19:27:22.029Z,100.00
2024-02-26T19:32:25.564Z,100.00
2024-02-26T19:37:29.276Z,100.00
2024-02-26T19:42:35.852Z,100.00
2024-02-26T19:47:41.438Z,100.00
2024-02-26T19:52:45.477Z,100.00
2024-02-26T19:57:49.240Z,100.00
2024-02-26T20:02:52.936Z,100.00
2024-02-26T20:08:54.522Z,100.00
2024-02-26T20:14:32.761Z,100.00
2024-02-26T20:19:49.118Z,100.00
2024-02-26T20:24:56.081Z,100.00
2024-02-26T20:30:01.381Z,100.00
2024-02-26T20:35:33.639Z,100.00
2024-02-26T20:41:39.783Z,100.00
2024-02-26T20:47:08.510Z,100.00
2024-02-26T20:52:12.181Z,100.00
2024-02-26T20:57:15.791Z,100.00
2024-02-26T21:02:24.276Z,100.00
2024-02-26T21:13:45.014Z,100.00
2024-02-26T21:18:48.739Z,100.00
2024-02-26T21:23:52.887Z,100.00
2024-02-26T21:28:57.382Z,100.00
2024-02-26T21:34:01.379Z,100.00
2024-02-26T21:39:04.951Z,100.00
2024-02-26T21:44:09.678Z,100.00
2024-02-26T21:49:13.527Z,100.00
2024-02-26T21:54:17.169Z,100.00
2024-02-26T21:59:20.720Z,100.00
2024-02-26T22:04:24.235Z,100.00
2024-02-26T22:09:28.506Z,100.00
2024-02-26T22:14:32.200Z,100.00
2024-02-26T22:19:36.248Z,100.00
2024-02-26T22:24:39.827Z,100.00
2024-02-26T22:29:43.480Z,100.00
2024-02-26T22:34:47.258Z,100.00
2024-02-26T22:39:51.003Z,100.00
2024-02-26T22:44:54.647Z,100.00
2024-02-26T22:49:58.504Z,100.00
2024-02-26T22:55:01.919Z,100.00
2024-02-26T23:00:24.818Z,100.00
2024-02-26T23:05:28.766Z,100.00
2024-02-26T23:10:32.072Z,100.00
2024-02-26T23:15:39.745Z,100.00
2024-02-26T23:20:43.307Z,100.00
2024-02-26T23:25:46.953Z,100.00
2024-02-26T23:30:50.693Z,100.00
2024-02-26T23:35:54.488Z,100.00
2024-02-26T23:40:58.213Z,100.00
2024-02-26T23:46:01.459Z,100.00
2024-02-26T23:51:05.115Z,100.00
2024-02-26T23:56:08.985Z,100.00
